createdAt,value
2022-08-03T00:01:44.313Z,27.20
2022-08-03T00:04:12.449Z,27.20
2022-08-03T00:06:39.884Z,27.20
2022-08-03T00:09:07.440Z,27.20
2022-08-03T00:11:35.699Z,27.20
2022-08-03T00:14:05.117Z,27.20
2022-08-03T00:16:32.571Z,27.20
2022-08-03T00:19:01.022Z,27.20
2022-08-03T00:21:29.405Z,27.20
2022-08-03T00:23:57.022Z,27.20
2022-08-03T00:26:24.433Z,27.20
2022-08-03T00:28:51.762Z,27.10
2022-08-03T00:31:35.218Z,27.10
2022-08-03T00:34:06.980Z,27.00
2022-08-03T00:36:34.402Z,26.90
2022-08-03T00:39:01.867Z,27.00
2022-08-03T00:41:29.268Z,26.90
2022-08-03T00:43:56.695Z,26.90
2022-08-03T00:46:24.117Z,26.80
2022-08-03T00:48:52.051Z,26.80
2022-08-03T00:51:21.603Z,26.80
2022-08-03T00:53:50.335Z,26.80
2022-08-03T00:56:18.680Z,26.70
2022-08-03T00:58:47.090Z,26.70
2022-08-03T01:01:14.927Z,26.60
2022-08-03T01:03:42.668Z,26.60
2022-08-03T01:06:18.417Z,26.60
2022-08-03T01:09:03.863Z,26.60
2022-08-03T01:12:01.245Z,26.50
2022-08-03T01:14:33.833Z,26.50
2022-08-03T01:17:10.693Z,26.50
2022-08-03T01:20:00.626Z,26.40
2022-08-03T01:22:38.001Z,26.30
2022-08-03T01:25:46.607Z,26.30
2022-08-03T01:29:02.636Z,26.20
2022-08-03T01:31:37.091Z,26.10
2022-08-03T01:34:28.273Z,26.10
2022-08-03T01:36:57.532Z,26.10
2022-08-03T01:39:26.443Z,26.00
2022-08-03T01:42:00.878Z,26.00
2022-08-03T01:44:31.437Z,26.00
2022-08-03T01:47:03.468Z,26.00
2022-08-03T01:49:35.638Z,26.00
2022-08-03T01:52:05.523Z,26.00
2022-08-03T01:54:36.276Z,26.00
2022-08-03T01:57:04.892Z,26.00
2022-08-03T01:59:35.867Z,26.00
2022-08-03T02:02:28.487Z,26.00
2022-08-03T02:04:57.789Z,25.90
2022-08-03T02:07:26.909Z,26.00
2022-08-03T02:09:55.537Z,26.00
2022-08-03T02:12:26.270Z,26.00
2022-08-03T02:14:56.416Z,26.00
2022-08-03T02:17:39.796Z,26.00
2022-08-03T02:20:13.377Z,25.90
2022-08-03T02:22:42.549Z,25.90
2022-08-03T02:25:11.575Z,26.00
2022-08-03T02:27:48.958Z,25.90
2022-08-03T02:30:16.482Z,25.90
2022-08-03T02:32:54.545Z,25.90
2022-08-03T02:35:24.446Z,26.00
2022-08-03T02:37:58.659Z,26.00
2022-08-03T02:40:28.349Z,25.90
2022-08-03T02:42:59.681Z,25.90
2022-08-03T02:45:29.120Z,25.90
2022-08-03T02:48:01.859Z,25.90
2022-08-03T02:50:31.024Z,25.90
2022-08-03T02:52:59.880Z,25.80
2022-08-03T02:55:28.581Z,25.80
2022-08-03T02:57:57.399Z,25.90
2022-08-03T03:00:31.154Z,25.80
2022-08-03T03:03:00.767Z,25.80
2022-08-03T03:05:53.716Z,25.90
2022-08-03T03:08:25.824Z,25.80
2022-08-03T03:10:57.112Z,25.80
2022-08-03T03:13:25.533Z,25.80
2022-08-03T03:15:54.459Z,25.80
2022-08-03T03:18:23.201Z,25.80
2022-08-03T03:20:53.383Z,25.80
2022-08-03T03:23:23.367Z,25.80
2022-08-03T03:25:52.449Z,25.70
2022-08-03T03:28:20.798Z,25.70
2022-08-03T03:30:52.431Z,25.60
2022-08-03T03:33:22.092Z,25.60
2022-08-03T03:35:50.462Z,25.60
2022-08-03T03:38:19.069Z,25.50
2022-08-03T03:40:46.856Z,25.50
2022-08-03T03:43:14.307Z,25.60
2022-08-03T03:45:43.021Z,25.60
2022-08-03T03:48:11.082Z,25.60
2022-08-03T03:50:41.760Z,25.70
2022-08-03T03:53:11.109Z,25.70
2022-08-03T03:56:01.636Z,25.70
2022-08-03T03:58:26.208Z,25.70
2022-08-03T04:00:53.916Z,25.70
2022-08-03T04:03:21.520Z,25.70
2022-08-03T04:06:07.606Z,25.70
2022-08-03T04:08:53.865Z,25.70
2022-08-03T04:11:39.524Z,25.70
2022-08-03T04:14:20.249Z,25.70
2022-08-03T04:16:52.203Z,25.70
2022-08-03T04:19:45.014Z,25.70
2022-08-03T04:22:24.039Z,25.70
2022-08-03T04:24:57.158Z,25.70
2022-08-03T04:27:26.774Z,25.70
2022-08-03T04:29:56.853Z,25.70
2022-08-03T04:32:28.651Z,25.70
2022-08-03T04:34:56.219Z,25.70
2022-08-03T04:37:29.445Z,25.70
2022-08-03T04:39:57.953Z,25.70
2022-08-03T04:42:26.339Z,25.80
2022-08-03T04:45:00.875Z,25.80
2022-08-03T04:47:32.419Z,25.90
2022-08-03T04:50:02.466Z,25.90
2022-08-03T04:52:30.803Z,25.90
2022-08-03T04:54:58.142Z,26.00
2022-08-03T04:57:25.556Z,26.00
2022-08-03T05:00:02.163Z,26.00
2022-08-03T05:02:31.773Z,26.00
2022-08-03T05:04:59.878Z,26.10
2022-08-03T05:07:35.720Z,26.10
2022-08-03T05:10:11.742Z,26.10
2022-08-03T05:12:43.394Z,26.20
2022-08-03T05:15:11.048Z,26.30
2022-08-03T05:17:38.966Z,26.30
2022-08-03T05:20:07.278Z,26.30
2022-08-03T05:22:34.996Z,26.40
2022-08-03T05:25:03.035Z,26.40
2022-08-03T05:27:30.424Z,26.50
2022-08-03T05:30:32.341Z,26.50
2022-08-03T05:32:45.196Z,26.60
2022-08-03T05:35:56.072Z,26.60
2022-08-03T05:38:00.079Z,26.60
2022-08-03T05:40:27.631Z,26.70
2022-08-03T05:42:55.450Z,26.80
2022-08-03T05:45:28.159Z,26.80
2022-08-03T05:47:55.873Z,26.90
2022-08-03T05:50:23.632Z,26.90
2022-08-03T05:52:51.032Z,27.00
2022-08-03T05:55:19.088Z,27.00
2022-08-03T05:57:47.256Z,27.10
2022-08-03T06:00:17.172Z,27.10
2022-08-03T06:02:44.642Z,27.20
2022-08-03T06:05:11.983Z,27.20
2022-08-03T06:07:39.360Z,27.30
2022-08-03T06:10:36.898Z,27.30
2022-08-03T06:12:54.772Z,27.40
2022-08-03T06:15:22.246Z,27.40
2022-08-03T06:17:50.703Z,27.30
2022-08-03T06:20:19.675Z,27.40
2022-08-03T06:22:50.833Z,27.40
2022-08-03T06:25:27.980Z,27.40
2022-08-03T06:27:55.397Z,27.50
2022-08-03T06:30:22.825Z,27.50
2022-08-03T06:32:51.626Z,27.50
2022-08-03T06:35:20.485Z,27.50
2022-08-03T06:37:49.919Z,27.60
2022-08-03T06:40:29.790Z,27.70
2022-08-03T06:43:01.925Z,27.70
2022-08-03T06:45:31.894Z,27.80
2022-08-03T06:48:05.278Z,27.80
2022-08-03T06:50:34.152Z,27.80
2022-08-03T06:53:01.952Z,27.90
2022-08-03T06:55:29.736Z,27.90
2022-08-03T06:58:03.145Z,28.00
2022-08-03T07:00:31.289Z,28.10
2022-08-03T07:02:58.754Z,28.20
2022-08-03T07:05:26.218Z,28.30
2022-08-03T07:07:57.690Z,28.30
2022-08-03T07:10:25.637Z,28.40
2022-08-03T07:12:56.457Z,28.40
2022-08-03T07:15:54.303Z,28.50
2022-08-03T07:18:12.537Z,28.50
2022-08-03T07:20:40.887Z,28.60
2022-08-03T07:23:08.372Z,28.60
2022-08-03T07:25:35.982Z,28.70
2022-08-03T07:28:03.949Z,28.80
2022-08-03T07:30:31.444Z,28.90
2022-08-03T07:32:58.953Z,29.00
2022-08-03T07:35:26.424Z,29.10
2022-08-03T07:37:55.147Z,29.10
2022-08-03T07:40:22.994Z,29.10
2022-08-03T07:42:53.335Z,29.10
2022-08-03T07:45:23.405Z,29.20
2022-08-03T07:47:53.531Z,29.30
2022-08-03T07:50:22.371Z,29.40
2022-08-03T07:52:54.005Z,29.60
2022-08-03T07:55:26.147Z,29.60
2022-08-03T07:58:12.486Z,29.60
2022-08-03T08:00:40.093Z,29.60
2022-08-03T08:03:07.638Z,29.60
2022-08-03T08:05:35.160Z,29.60
2022-08-03T08:08:03.086Z,29.70
2022-08-03T08:10:30.864Z,29.80
2022-08-03T08:12:58.555Z,29.80
2022-08-03T08:15:26.034Z,29.80
2022-08-03T08:17:56.349Z,29.90
2022-08-03T08:20:30.632Z,30.00
2022-08-03T08:23:34.512Z,30.00
2022-08-03T08:25:52.864Z,30.00
2022-08-03T08:28:32.412Z,30.10
2022-08-03T08:31:01.872Z,30.20
2022-08-03T08:33:42.509Z,30.20
2022-08-03T08:36:16.997Z,30.30
2022-08-03T08:38:45.119Z,30.40
2022-08-03T08:41:14.403Z,30.40
2022-08-03T08:43:42.802Z,30.50
2022-08-03T08:46:19.280Z,30.60
2022-08-03T08:48:53.137Z,30.60
2022-08-03T08:51:22.539Z,30.50
2022-08-03T08:53:52.929Z,30.60
2022-08-03T08:56:22.777Z,30.70
2022-08-03T08:59:00.487Z,30.70
2022-08-03T09:01:28.330Z,30.80
2022-08-03T09:03:56.141Z,31.00
2022-08-03T09:06:24.405Z,31.00
2022-08-03T09:08:52.044Z,31.10
2022-08-03T09:11:54.547Z,31.20
2022-08-03T09:14:36.648Z,31.30
2022-08-03T09:17:03.920Z,31.40
2022-08-03T09:19:32.851Z,31.30
2022-08-03T09:22:13.585Z,31.30
2022-08-03T09:25:22.889Z,31.30
2022-08-03T09:27:46.982Z,31.40
2022-08-03T09:30:32.163Z,31.50
2022-08-03T09:33:12.933Z,31.60
2022-08-03T09:35:53.923Z,31.70
2022-08-03T09:38:26.042Z,31.70
2022-08-03T09:40:59.515Z,31.70
2022-08-03T09:43:27.951Z,31.70
2022-08-03T09:46:07.318Z,31.80
2022-08-03T09:48:35.519Z,31.80
2022-08-03T09:51:14.095Z,31.70
2022-08-03T09:53:59.792Z,31.90
2022-08-03T09:56:39.452Z,31.80
2022-08-03T09:59:06.869Z,31.90
2022-08-03T10:01:35.790Z,32.00
2022-08-03T10:04:05.139Z,32.10
2022-08-03T10:06:32.929Z,32.10
2022-08-03T10:09:11.573Z,32.20
2022-08-03T10:11:42.017Z,32.20
2022-08-03T10:14:18.774Z,32.30
2022-08-03T10:16:47.313Z,32.40
2022-08-03T10:19:15.813Z,32.30
2022-08-03T10:21:51.356Z,32.30
2022-08-03T10:24:26.201Z,32.30
2022-08-03T10:27:07.157Z,32.30
2022-08-03T10:29:42.796Z,32.30
2022-08-03T10:32:19.056Z,32.30
2022-08-03T10:34:50.670Z,32.40
2022-08-03T10:37:32.183Z,32.60
2022-08-03T10:40:02.500Z,32.70
2022-08-03T10:42:31.887Z,32.80
2022-08-03T10:45:14.819Z,32.90
2022-08-03T10:47:42.600Z,32.90
2022-08-03T10:50:11.089Z,32.90
2022-08-03T10:52:58.171Z,32.80
2022-08-03T10:56:05.915Z,33.00
2022-08-03T10:58:41.514Z,33.20
2022-08-03T11:02:01.446Z,33.20
2022-08-03T11:04:30.018Z,33.20
2022-08-03T11:07:16.461Z,33.30
2022-08-03T11:09:47.623Z,33.50
2022-08-03T11:12:30.026Z,33.60
2022-08-03T11:15:05.678Z,33.70
2022-08-03T11:17:46.238Z,33.70
2022-08-03T11:20:50.647Z,33.70
2022-08-03T11:24:05.619Z,33.70
2022-08-03T11:26:15.263Z,33.70
2022-08-03T11:28:47.566Z,33.80
2022-08-03T11:31:48.523Z,33.90
2022-08-03T11:34:15.827Z,33.90
2022-08-03T11:37:22.538Z,33.90
2022-08-03T11:39:52.956Z,33.80
2022-08-03T11:42:23.286Z,33.80
2022-08-03T11:45:00.912Z,33.80
2022-08-03T11:47:29.756Z,33.80
2022-08-03T11:50:02.108Z,33.90
2022-08-03T11:52:38.255Z,33.90
2022-08-03T11:55:10.569Z,33.90
2022-08-03T11:59:16.954Z,34.00
2022-08-03T12:00:33.249Z,33.90
2022-08-03T12:03:10.815Z,33.80
2022-08-03T12:05:39.623Z,33.80
2022-08-03T12:08:10.050Z,33.80
2022-08-03T12:10:38.931Z,33.80
2022-08-03T12:13:56.694Z,33.80
2022-08-03T12:15:59.199Z,33.90
2022-08-03T12:18:27.008Z,33.90
2022-08-03T12:21:04.771Z,33.90
2022-08-03T12:23:36.072Z,33.90
2022-08-03T12:26:06.140Z,34.00
2022-08-03T12:28:36.782Z,34.00
2022-08-03T12:31:07.910Z,34.10
2022-08-03T12:34:05.094Z,34.10
2022-08-03T12:36:35.210Z,34.00
2022-08-03T12:39:08.548Z,34.00
2022-08-03T12:41:40.926Z,34.10
2022-08-03T12:44:09.372Z,34.10
2022-08-03T12:46:42.715Z,34.10
2022-08-03T12:49:15.670Z,34.10
2022-08-03T12:51:43.018Z,34.10
2022-08-03T12:54:18.129Z,34.20
2022-08-03T12:57:01.156Z,34.20
2022-08-03T12:59:40.680Z,34.10
2022-08-03T13:02:19.742Z,34.10
2022-08-03T13:04:52.584Z,34.20
2022-08-03T13:07:21.350Z,34.30
2022-08-03T13:09:53.044Z,34.30
2022-08-03T13:12:22.635Z,34.20
2022-08-03T13:14:59.054Z,34.20
2022-08-03T13:17:27.703Z,34.10
2022-08-03T13:19:55.858Z,34.00
2022-08-03T13:22:29.046Z,34.00
2022-08-03T13:24:57.558Z,34.00
2022-08-03T13:28:03.219Z,34.10
2022-08-03T13:30:13.582Z,34.20
2022-08-03T13:32:45.348Z,34.20
2022-08-03T13:35:12.936Z,34.20
2022-08-03T13:37:44.086Z,34.30
2022-08-03T13:40:16.219Z,34.30
2022-08-03T13:42:44.488Z,34.30
2022-08-03T13:45:11.951Z,34.30
2022-08-03T13:47:39.381Z,34.20
2022-08-03T13:50:07.058Z,34.20
2022-08-03T13:52:35.817Z,34.20
2022-08-03T13:55:05.759Z,34.20
2022-08-03T13:58:04.141Z,34.20
2022-08-03T14:00:28.142Z,34.30
2022-08-03T14:03:14.938Z,34.30
2022-08-03T14:05:45.617Z,34.30
2022-08-03T14:08:13.294Z,34.30
2022-08-03T14:10:43.370Z,34.30
2022-08-03T14:13:12.779Z,34.20
2022-08-03T14:15:49.703Z,34.20
2022-08-03T14:18:28.825Z,34.20
2022-08-03T14:21:05.910Z,34.20
2022-08-03T14:23:35.129Z,34.20
2022-08-03T14:26:03.235Z,34.20
2022-08-03T14:28:30.739Z,34.00
2022-08-03T14:30:58.037Z,33.90
2022-08-03T14:33:25.729Z,33.90
2022-08-03T14:35:53.443Z,33.90
2022-08-03T14:38:21.437Z,33.90
2022-08-03T14:40:49.196Z,33.90
2022-08-03T14:43:21.444Z,34.00
2022-08-03T14:45:53.524Z,34.10
2022-08-03T14:50:33.248Z,34.00
2022-08-03T14:51:10.522Z,34.00
2022-08-03T14:53:37.939Z,34.00
2022-08-03T14:56:10.043Z,33.90
2022-08-03T14:58:38.626Z,33.90
2022-08-03T15:02:02.307Z,33.90
2022-08-03T15:03:54.764Z,33.90
2022-08-03T15:06:22.159Z,33.90
2022-08-03T15:09:06.295Z,33.90
2022-08-03T15:11:37.316Z,33.80
2022-08-03T15:14:08.994Z,33.90
2022-08-03T15:16:38.065Z,33.90
2022-08-03T15:20:01.999Z,33.90
2022-08-03T15:21:53.271Z,33.90
2022-08-03T15:24:20.785Z,33.90
2022-08-03T15:26:48.211Z,33.90
2022-08-03T15:30:07.177Z,33.90
2022-08-03T15:32:07.323Z,33.80
2022-08-03T15:34:36.499Z,33.70
2022-08-03T15:37:12.882Z,33.70
2022-08-03T15:39:58.844Z,33.60
2022-08-03T15:42:29.558Z,33.60
2022-08-03T15:44:57.437Z,33.50
2022-08-03T15:47:24.931Z,33.40
2022-08-03T15:49:52.406Z,33.50
2022-08-03T15:52:19.828Z,33.50
2022-08-03T15:54:47.220Z,33.50
2022-08-03T15:57:14.647Z,33.50
2022-08-03T15:59:42.044Z,33.50
2022-08-03T16:02:09.865Z,33.50
2022-08-03T16:04:37.243Z,33.50
2022-08-03T16:07:04.940Z,33.40
2022-08-03T16:09:43.011Z,33.40
2022-08-03T16:12:15.459Z,33.30
2022-08-03T16:14:52.727Z,33.30
2022-08-03T16:17:21.937Z,33.30
2022-08-03T16:19:49.956Z,33.30
2022-08-03T16:22:23.010Z,33.30
2022-08-03T16:24:53.060Z,33.20
2022-08-03T16:27:56.497Z,33.20
2022-08-03T16:30:11.585Z,33.20
2022-08-03T16:32:39.838Z,33.20
2022-08-03T16:35:08.067Z,33.20
2022-08-03T16:37:38.662Z,33.20
2022-08-03T16:40:19.400Z,33.20
2022-08-03T16:42:47.731Z,33.20
2022-08-03T16:45:15.184Z,33.20
2022-08-03T16:47:42.686Z,33.20
2022-08-03T16:50:17.237Z,33.20
2022-08-03T16:52:48.307Z,33.20
2022-08-03T16:55:42.989Z,33.20
2022-08-03T16:58:05.746Z,33.20
2022-08-03T17:00:41.700Z,33.10
2022-08-03T17:03:20.516Z,33.10
2022-08-03T17:05:50.026Z,33.00
2022-08-03T17:08:18.958Z,33.00
2022-08-03T17:10:55.407Z,32.90
2022-08-03T17:13:38.812Z,32.90
2022-08-03T17:16:09.701Z,32.90
2022-08-03T17:18:51.304Z,32.90
2022-08-03T17:21:25.667Z,32.90
2022-08-03T17:24:19.713Z,32.90
2022-08-03T17:26:49.869Z,32.90
2022-08-03T17:29:22.877Z,32.90
2022-08-03T17:31:53.030Z,32.90
2022-08-03T17:34:21.682Z,32.80
2022-08-03T17:37:27.140Z,32.70
2022-08-03T17:39:58.158Z,32.70
2022-08-03T17:42:30.851Z,32.70
2022-08-03T17:45:02.370Z,32.70
2022-08-03T17:47:42.197Z,32.70
2022-08-03T17:50:24.756Z,32.70
2022-08-03T17:53:23.593Z,32.70
2022-08-03T17:56:38.548Z,32.70
2022-08-03T17:59:14.646Z,32.70
2022-08-03T18:02:30.723Z,32.70
2022-08-03T18:05:16.721Z,32.50
2022-08-03T18:07:47.492Z,32.50
2022-08-03T18:10:22.645Z,32.40
2022-08-03T18:12:58.147Z,32.30
2022-08-03T18:15:36.977Z,32.30
2022-08-03T18:18:10.558Z,32.30
2022-08-03T18:20:42.148Z,32.20
2022-08-03T18:23:25.154Z,32.20
2022-08-03T18:26:01.030Z,32.20
2022-08-03T18:28:29.488Z,32.10
2022-08-03T18:30:57.817Z,32.10
2022-08-03T18:34:18.378Z,32.10
2022-08-03T18:36:29.495Z,32.10
2022-08-03T18:39:06.149Z,32.00
2022-08-03T18:41:35.054Z,32.00
2022-08-03T18:44:08.866Z,32.00
2022-08-03T18:47:16.775Z,31.90
2022-08-03T18:49:59.284Z,31.90
2022-08-03T18:52:35.501Z,31.80
2022-08-03T18:55:21.068Z,31.80
2022-08-03T18:58:17.636Z,31.60
2022-08-03T19:01:57.823Z,31.50
2022-08-03T19:04:13.905Z,31.40
2022-08-03T19:06:45.735Z,31.30
2022-08-03T19:09:28.054Z,31.20
2022-08-03T19:14:53.557Z,31.10
2022-08-03T19:17:22.145Z,31.00
2022-08-03T19:19:58.694Z,31.00
2022-08-03T19:22:29.335Z,31.00
2022-08-03T19:25:02.750Z,30.90
2022-08-03T19:27:32.136Z,30.90
2022-08-03T19:30:04.063Z,30.90
2022-08-03T19:32:34.709Z,30.90
2022-08-03T19:35:04.193Z,30.90
2022-08-03T19:37:38.068Z,30.90
2022-08-03T19:40:10.347Z,30.80
2022-08-03T19:42:45.240Z,30.80
2022-08-03T19:45:20.688Z,30.80
2022-08-03T19:47:52.264Z,30.80
2022-08-03T19:50:20.999Z,30.80
2022-08-03T19:52:50.056Z,30.80
2022-08-03T19:55:18.000Z,30.80
2022-08-03T19:57:49.199Z,30.80
2022-08-03T20:00:19.968Z,30.80
2022-08-03T20:02:54.024Z,30.80
2022-08-03T20:05:21.593Z,30.80
2022-08-03T20:07:50.295Z,30.80
2022-08-03T20:10:20.115Z,30.80
2022-08-03T20:12:49.217Z,30.70
2022-08-03T20:15:22.162Z,30.70
2022-08-03T20:17:56.566Z,30.70
2022-08-03T20:20:34.873Z,30.70
2022-08-03T20:23:10.119Z,30.60
2022-08-03T20:25:48.957Z,30.60
2022-08-03T20:28:49.631Z,30.50
2022-08-03T20:31:23.830Z,30.50
2022-08-03T20:34:00.755Z,30.60
2022-08-03T20:36:28.354Z,30.50
2022-08-03T20:38:58.091Z,30.50
2022-08-03T20:41:25.718Z,30.50
2022-08-03T20:43:53.303Z,30.40
2022-08-03T20:46:32.035Z,30.40
2022-08-03T20:49:05.337Z,30.40
2022-08-03T20:51:49.698Z,30.30
2022-08-03T20:54:29.586Z,30.20
2022-08-03T20:57:04.145Z,30.20
2022-08-03T20:59:50.730Z,30.20
2022-08-03T21:02:29.882Z,30.20
2022-08-03T21:05:08.649Z,30.20
2022-08-03T21:08:06.478Z,30.10
2022-08-03T21:10:38.577Z,30.00
2022-08-03T21:13:10.856Z,31.10
2022-08-03T21:13:18.222Z,30.00
2022-08-03T21:16:06.261Z,30.00
2022-08-03T21:18:51.472Z,30.00
2022-08-03T21:21:21.235Z,30.00
2022-08-03T21:23:59.540Z,30.00
2022-08-03T21:26:27.704Z,30.00
2022-08-03T21:28:56.617Z,29.90
2022-08-03T21:31:26.589Z,29.90
2022-08-03T21:33:56.521Z,29.80
2022-08-03T21:36:28.495Z,29.80
2022-08-03T21:38:57.440Z,29.80
2022-08-03T21:41:33.073Z,29.80
2022-08-03T21:44:01.478Z,29.70
2022-08-03T21:46:36.485Z,29.70
2022-08-03T21:50:05.405Z,29.60
2022-08-03T21:52:06.560Z,29.60
2022-08-03T21:54:40.899Z,29.60
2022-08-03T21:57:30.464Z,29.60
2022-08-03T22:00:25.132Z,29.60
2022-08-03T22:02:56.080Z,29.50
2022-08-03T22:05:42.484Z,29.50
2022-08-03T22:08:13.430Z,29.50
2022-08-03T22:10:44.379Z,29.40
2022-08-03T22:13:13.691Z,29.40
2022-08-03T22:15:41.788Z,29.30
2022-08-03T22:18:10.253Z,29.30
2022-08-03T22:20:38.053Z,29.30
2022-08-03T22:23:07.215Z,29.20
2022-08-03T22:25:38.174Z,29.20
2022-08-03T22:28:09.818Z,29.20
2022-08-03T22:30:38.292Z,29.10
2022-08-03T22:33:11.121Z,29.10
2022-08-03T22:35:47.199Z,29.10
2022-08-03T22:38:17.767Z,29.10
2022-08-03T22:40:48.180Z,29.10
2022-08-03T22:43:16.139Z,29.10
2022-08-03T22:46:09.398Z,29.10
2022-08-03T22:48:35.299Z,29.00
2022-08-03T22:51:08.267Z,29.00
2022-08-03T22:53:36.757Z,29.00
2022-08-03T22:56:04.567Z,29.00
2022-08-03T22:58:31.946Z,28.90
2022-08-03T23:01:05.901Z,28.90
2022-08-03T23:04:00.382Z,28.90
2022-08-03T23:06:27.147Z,28.80
2022-08-03T23:08:54.959Z,28.80
2022-08-03T23:11:24.713Z,28.80
2022-08-03T23:13:54.282Z,28.80
2022-08-03T23:16:29.216Z,28.70
2022-08-03T23:18:59.860Z,28.70
2022-08-03T23:22:01.025Z,28.70
2022-08-03T23:24:35.918Z,28.60
2022-08-03T23:27:05.213Z,28.60
2022-08-03T23:29:38.657Z,28.50
2022-08-03T23:32:06.964Z,28.50
2022-08-03T23:34:53.933Z,28.50
2022-08-03T23:37:21.770Z,28.50
2022-08-03T23:39:49.308Z,28.50
2022-08-03T23:42:18.997Z,28.40
2022-08-03T23:44:51.907Z,28.40
2022-08-03T23:47:19.293Z,28.40
2022-08-03T23:49:46.804Z,28.40
2022-08-03T23:52:46.748Z,28.40
2022-08-03T23:55:20.038Z,28.40
2022-08-03T23:57:59.457Z,28.40
